sensor_id;sensor_type;location;lat;lon;timestamp;temperature;humidity
25092;DHT22;13082;52.374;4.946;2023-08-21T00:00:13;19.90;99.90
25092;DHT22;13082;52.374;4.946;2023-08-21T00:02:39;19.90;99.90
25092;DHT22;13082;52.374;4.946;2023-08-21T00:05:05;19.70;99.90
25092;DHT22;13082;52.374;4.946;2023-08-21T00:07:31;19.70;99.90
25092;DHT22;13082;52.374;4.946;2023-08-21T00:09:57;19.60;99.90
25092;DHT22;13082;52.374;4.946;2023-08-21T00:12:22;19.60;99.90
25092;DHT22;13082;52.374;4.946;2023-08-21T00:14:48;19.50;99.90
25092;DHT22;13082;52.374;4.946;2023-08-21T00:17:14;19.50;99.90
25092;DHT22;13082;52.374;4.946;2023-08-21T00:19:39;19.40;99.90
25092;DHT22;13082;52.374;4.946;2023-08-21T00:22:05;19.40;99.90
25092;DHT22;13082;52.374;4.946;2023-08-21T00:24:31;19.40;99.90
25092;DHT22;13082;52.374;4.946;2023-08-21T00:26:56;19.40;99.90
25092;DHT22;13082;52.374;4.946;2023-08-21T00:29:22;19.30;99.90
25092;DHT22;13082;52.374;4.946;2023-08-21T00:31:47;19.30;99.90
25092;DHT22;13082;52.374;4.946;2023-08-21T00:34:13;19.20;99.90
25092;DHT22;13082;52.374;4.946;2023-08-21T00:36:38;19.20;99.90
25092;DHT22;13082;52.374;4.946;2023-08-21T00:39:04;19.10;99.90
25092;DHT22;13082;52.374;4.946;2023-08-21T00:41:30;19.10;99.90
25092;DHT22;13082;52.374;4.946;2023-08-21T00:43:56;19.00;99.90
25092;DHT22;13082;52.374;4.946;2023-08-21T00:46:22;19.00;99.90
25092;DHT22;13082;52.374;4.946;2023-08-21T00:48:47;19.00;99.90
25092;DHT22;13082;52.374;4.946;2023-08-21T00:51:15;19.00;99.90
25092;DHT22;13082;52.374;4.946;2023-08-21T00:53:41;19.10;99.90
25092;DHT22;13082;52.374;4.946;2023-08-21T00:56:08;19.20;99.90
25092;DHT22;13082;52.374;4.946;2023-08-21T00:58:34;19.50;99.90
25092;DHT22;13082;52.374;4.946;2023-08-21T01:01:00;19.70;99.90
25092;DHT22;13082;52.374;4.946;2023-08-21T01:03:26;19.90;99.90
25092;DHT22;13082;52.374;4.946;2023-08-21T01:05:51;20.10;99.90
25092;DHT22;13082;52.374;4.946;2023-08-21T01:08:42;20.10;99.90
25092;DHT22;13082;52.374;4.946;2023-08-21T01:11:21;20.00;99.90
25092;DHT22;13082;52.374;4.946;2023-08-21T01:14:09;19.90;99.90
25092;DHT22;13082;52.374;4.946;2023-08-21T01:16:40;19.90;99.90
25092;DHT22;13082;52.374;4.946;2023-08-21T01:19:14;20.00;99.90
25092;DHT22;13082;52.374;4.946;2023-08-21T01:21:44;20.20;99.90
25092;DHT22;13082;52.374;4.946;2023-08-21T01:24:10;20.20;99.90
25092;DHT22;13082;52.374;4.946;2023-08-21T01:26:35;20.00;99.90
25092;DHT22;13082;52.374;4.946;2023-08-21T01:29:01;19.80;99.90
25092;DHT22;13082;52.374;4.946;2023-08-21T01:31:30;19.60;99.90
25092;DHT22;13082;52.374;4.946;2023-08-21T01:34:01;19.40;99.90
25092;DHT22;13082;52.374;4.946;2023-08-21T01:36:28;19.30;99.90
25092;DHT22;13082;52.374;4.946;2023-08-21T01:38:54;19.30;99.90
25092;DHT22;13082;52.374;4.946;2023-08-21T01:41:23;19.20;99.90
25092;DHT22;13082;52.374;4.946;2023-08-21T01:43:49;19.30;99.90
25092;DHT22;13082;52.374;4.946;2023-08-21T01:46:14;19.20;99.90
25092;DHT22;13082;52.374;4.946;2023-08-21T01:48:40;19.20;99.90
25092;DHT22;13082;52.374;4.946;2023-08-21T01:51:05;19.40;99.90
25092;DHT22;13082;52.374;4.946;2023-08-21T01:53:31;19.70;99.90
25092;DHT22;13082;52.374;4.946;2023-08-21T01:55:57;19.70;99.90
25092;DHT22;13082;52.374;4.946;2023-08-21T01:58:22;19.80;99.90
25092;DHT22;13082;52.374;4.946;2023-08-21T02:00:48;19.90;99.90
25092;DHT22;13082;52.374;4.946;2023-08-21T02:03:14;19.90;99.90
25092;DHT22;13082;52.374;4.946;2023-08-21T02:05:40;20.00;99.90
25092;DHT22;13082;52.374;4.946;2023-08-21T02:08:12;20.10;99.90
25092;DHT22;13082;52.374;4.946;2023-08-21T02:10:46;20.20;99.90
25092;DHT22;13082;52.374;4.946;2023-08-21T02:13:11;20.30;99.90
25092;DHT22;13082;52.374;4.946;2023-08-21T02:15:38;20.20;99.90
25092;DHT22;13082;52.374;4.946;2023-08-21T02:18:04;20.00;99.90
25092;DHT22;13082;52.374;4.946;2023-08-21T02:20:30;20.00;99.90
25092;DHT22;13082;52.374;4.946;2023-08-21T02:22:55;20.10;99.90
25092;DHT22;13082;52.374;4.946;2023-08-21T02:25:21;20.20;99.90
25092;DHT22;13082;52.374;4.946;2023-08-21T02:27:46;20.20;99.90
25092;DHT22;13082;52.374;4.946;2023-08-21T02:30:12;20.30;99.90
25092;DHT22;13082;52.374;4.946;2023-08-21T02:32:38;20.40;99.90
25092;DHT22;13082;52.374;4.946;2023-08-21T02:35:06;20.40;99.90
25092;DHT22;13082;52.374;4.946;2023-08-21T02:37:31;20.50;99.90
25092;DHT22;13082;52.374;4.946;2023-08-21T02:39:57;20.50;99.90
25092;DHT22;13082;52.374;4.946;2023-08-21T02:42:25;20.50;99.90
25092;DHT22;13082;52.374;4.946;2023-08-21T02:44:50;20.30;99.90
25092;DHT22;13082;52.374;4.946;2023-08-21T02:47:16;20.30;99.90
25092;DHT22;13082;52.374;4.946;2023-08-21T02:49:41;20.30;99.90
25092;DHT22;13082;52.374;4.946;2023-08-21T02:52:07;20.00;99.90
25092;DHT22;13082;52.374;4.946;2023-08-21T02:54:33;19.70;99.90
25092;DHT22;13082;52.374;4.946;2023-08-21T02:56:58;19.60;99.90
25092;DHT22;13082;52.374;4.946;2023-08-21T02:59:24;19.70;99.90
25092;DHT22;13082;52.374;4.946;2023-08-21T03:01:50;19.80;99.90
25092;DHT22;13082;52.374;4.946;2023-08-21T03:04:15;20.00;99.90
25092;DHT22;13082;52.374;4.946;2023-08-21T03:06:41;20.10;99.90
25092;DHT22;13082;52.374;4.946;2023-08-21T03:09:06;20.20;99.90
25092;DHT22;13082;52.374;4.946;2023-08-21T03:11:32;20.20;99.90
25092;DHT22;13082;52.374;4.946;2023-08-21T03:13:58;20.20;99.90
25092;DHT22;13082;52.374;4.946;2023-08-21T03:16:23;20.30;99.90
25092;DHT22;13082;52.374;4.946;2023-08-21T03:19:00;20.40;99.90
25092;DHT22;13082;52.374;4.946;2023-08-21T03:21:26;20.40;99.90
25092;DHT22;13082;52.374;4.946;2023-08-21T03:23:56;20.30;99.90
25092;DHT22;13082;52.374;4.946;2023-08-21T03:26:23;20.30;99.90
25092;DHT22;13082;52.374;4.946;2023-08-21T03:28:48;20.30;99.90
25092;DHT22;13082;52.374;4.946;2023-08-21T03:31:14;20.30;99.90
25092;DHT22;13082;52.374;4.946;2023-08-21T03:33:40;20.30;99.90
25092;DHT22;13082;52.374;4.946;2023-08-21T03:36:06;20.30;99.90
25092;DHT22;13082;52.374;4.946;2023-08-21T03:38:32;20.20;99.90
25092;DHT22;13082;52.374;4.946;2023-08-21T03:40:57;20.20;99.90
25092;DHT22;13082;52.374;4.946;2023-08-21T03:43:23;20.00;99.90
25092;DHT22;13082;52.374;4.946;2023-08-21T03:45:48;19.80;99.90
25092;DHT22;13082;52.374;4.946;2023-08-21T03:48:14;19.80;99.90
25092;DHT22;13082;52.374;4.946;2023-08-21T03:50:40;19.80;99.90
25092;DHT22;13082;52.374;4.946;2023-08-21T03:53:05;19.70;99.90
25092;DHT22;13082;52.374;4.946;2023-08-21T03:55:31;19.80;99.90
25092;DHT22;13082;52.374;4.946;2023-08-21T03:57:56;19.90;99.90
25092;DHT22;13082;52.374;4.946;2023-08-21T04:00:22;19.90;99.90
25092;DHT22;13082;52.374;4.946;2023-08-21T04:02:48;19.90;99.90
25092;DHT22;13082;52.374;4.946;2023-08-21T04:05:13;19.80;99.90
25092;DHT22;13082;52.374;4.946;2023-08-21T04:07:39;19.70;99.90
25092;DHT22;13082;52.374;4.946;2023-08-21T04:10:05;19.50;99.90
25092;DHT22;13082;52.374;4.946;2023-08-21T04:12:31;19.30;99.90
25092;DHT22;13082;52.374;4.946;2023-08-21T04:14:57;19.10;99.90
25092;DHT22;13082;52.374;4.946;2023-08-21T04:17:23;18.90;99.90
25092;DHT22;13082;52.374;4.946;2023-08-21T04:19:50;18.90;99.90
25092;DHT22;13082;52.374;4.946;2023-08-21T04:22:16;19.00;99.90
25092;DHT22;13082;52.374;4.946;2023-08-21T04:24:42;19.10;99.90
25092;DHT22;13082;52.374;4.946;2023-08-21T04:27:07;19.30;99.90
25092;DHT22;13082;52.374;4.946;2023-08-21T04:29:35;19.50;99.90
25092;DHT22;13082;52.374;4.946;2023-08-21T04:32:00;19.70;99.90
25092;DHT22;13082;52.374;4.946;2023-08-21T04:34:26;19.80;99.90
25092;DHT22;13082;52.374;4.946;2023-08-21T04:36:52;19.90;99.90
25092;DHT22;13082;52.374;4.946;2023-08-21T04:39:18;20.10;99.90
25092;DHT22;13082;52.374;4.946;2023-08-21T04:41:43;20.20;99.90
25092;DHT22;13082;52.374;4.946;2023-08-21T04:44:09;20.20;99.90
25092;DHT22;13082;52.374;4.946;2023-08-21T04:46:34;20.20;99.90
25092;DHT22;13082;52.374;4.946;2023-08-21T04:49:00;19.90;99.90
25092;DHT22;13082;52.374;4.946;2023-08-21T04:51:26;19.50;99.90
25092;DHT22;13082;52.374;4.946;2023-08-21T04:53:51;19.20;99.90
25092;DHT22;13082;52.374;4.946;2023-08-21T04:56:17;18.80;99.90
25092;DHT22;13082;52.374;4.946;2023-08-21T04:58:42;18.60;99.90
25092;DHT22;13082;52.374;4.946;2023-08-21T05:01:08;18.50;99.90
25092;DHT22;13082;52.374;4.946;2023-08-21T05:03:34;18.60;99.90
25092;DHT22;13082;52.374;4.946;2023-08-21T05:05:59;18.70;99.90
25092;DHT22;13082;52.374;4.946;2023-08-21T05:08:26;18.60;99.90
25092;DHT22;13082;52.374;4.946;2023-08-21T05:11:01;18.60;99.90
25092;DHT22;13082;52.374;4.946;2023-08-21T05:13:27;18.60;99.90
25092;DHT22;13082;52.374;4.946;2023-08-21T05:15:54;18.70;99.90
25092;DHT22;13082;52.374;4.946;2023-08-21T05:18:20;18.70;99.90
25092;DHT22;13082;52.374;4.946;2023-08-21T05:20:47;18.80;99.90
25092;DHT22;13082;52.374;4.946;2023-08-21T05:23:12;18.80;99.90
25092;DHT22;13082;52.374;4.946;2023-08-21T05:25:38;18.80;99.90
25092;DHT22;13082;52.374;4.946;2023-08-21T05:28:05;18.90;99.90
25092;DHT22;13082;52.374;4.946;2023-08-21T05:30:30;18.90;99.90
25092;DHT22;13082;52.374;4.946;2023-08-21T05:32:56;19.00;99.90
25092;DHT22;13082;52.374;4.946;2023-08-21T05:35:21;18.90;99.90
25092;DHT22;13082;52.374;4.946;2023-08-21T05:37:47;18.90;99.90
25092;DHT22;13082;52.374;4.946;2023-08-21T05:40:13;19.00;99.90
25092;DHT22;13082;52.374;4.946;2023-08-21T05:42:38;19.00;99.90
25092;DHT22;13082;52.374;4.946;2023-08-21T05:45:05;19.00;99.90
25092;DHT22;13082;52.374;4.946;2023-08-21T05:47:31;19.10;99.90
25092;DHT22;13082;52.374;4.946;2023-08-21T05:49:57;19.10;99.90
25092;DHT22;13082;52.374;4.946;2023-08-21T05:52:22;19.00;99.90
25092;DHT22;13082;52.374;4.946;2023-08-21T05:54:48;18.90;99.90
25092;DHT22;13082;52.374;4.946;2023-08-21T05:57:14;18.90;99.90
25092;DHT22;13082;52.374;4.946;2023-08-21T05:59:47;18.80;99.90
25092;DHT22;13082;52.374;4.946;2023-08-21T06:02:13;18.90;99.90
25092;DHT22;13082;52.374;4.946;2023-08-21T06:04:42;18.80;99.90
25092;DHT22;13082;52.374;4.946;2023-08-21T06:07:08;18.80;99.90
25092;DHT22;13082;52.374;4.946;2023-08-21T06:09:34;18.80;99.90
25092;DHT22;13082;52.374;4.946;2023-08-21T06:12:01;18.80;99.90
25092;DHT22;13082;52.374;4.946;2023-08-21T06:14:27;18.90;99.90
25092;DHT22;13082;52.374;4.946;2023-08-21T06:17:00;19.00;99.90
25092;DHT22;13082;52.374;4.946;2023-08-21T06:19:27;19.10;99.90
25092;DHT22;13082;52.374;4.946;2023-08-21T06:21:52;19.20;99.90
25092;DHT22;13082;52.374;4.946;2023-08-21T06:24:18;19.20;99.90
25092;DHT22;13082;52.374;4.946;2023-08-21T06:26:43;19.30;99.90
25092;DHT22;13082;52.374;4.946;2023-08-21T06:29:09;19.30;99.90
25092;DHT22;13082;52.374;4.946;2023-08-21T06:31:35;19.40;99.90
25092;DHT22;13082;52.374;4.946;2023-08-21T06:34:00;19.40;99.90
25092;DHT22;13082;52.374;4.946;2023-08-21T06:36:26;19.40;99.90
25092;DHT22;13082;52.374;4.946;2023-08-21T06:38:51;19.60;99.90
25092;DHT22;13082;52.374;4.946;2023-08-21T06:41:17;19.60;99.90
25092;DHT22;13082;52.374;4.946;2023-08-21T06:43:43;19.60;99.90
25092;DHT22;13082;52.374;4.946;2023-08-21T06:46:08;19.60;99.90
25092;DHT22;13082;52.374;4.946;2023-08-21T06:48:37;19.60;99.90
25092;DHT22;13082;52.374;4.946;2023-08-21T06:51:03;19.70;99.90
25092;DHT22;13082;52.374;4.946;2023-08-21T06:53:29;19.90;99.90
25092;DHT22;13082;52.374;4.946;2023-08-21T06:55:54;20.00;99.90
25092;DHT22;13082;52.374;4.946;2023-08-21T06:58:20;20.00;99.90
25092;DHT22;13082;52.374;4.946;2023-08-21T07:00:46;20.10;99.90
25092;DHT22;13082;52.374;4.946;2023-08-21T07:03:12;20.10;99.90
25092;DHT22;13082;52.374;4.946;2023-08-21T07:05:37;20.10;99.90
25092;DHT22;13082;52.374;4.946;2023-08-21T07:08:03;20.20;99.90
25092;DHT22;13082;52.374;4.946;2023-08-21T07:10:29;20.20;99.90
25092;DHT22;13082;52.374;4.946;2023-08-21T07:12:55;20.20;99.90
25092;DHT22;13082;52.374;4.946;2023-08-21T07:15:21;20.30;99.90
25092;DHT22;13082;52.374;4.946;2023-08-21T07:17:47;20.40;99.90
25092;DHT22;13082;52.374;4.946;2023-08-21T07:20:12;20.50;99.90
25092;DHT22;13082;52.374;4.946;2023-08-21T07:22:38;20.40;99.90
25092;DHT22;13082;52.374;4.946;2023-08-21T07:25:04;20.40;99.90
25092;DHT22;13082;52.374;4.946;2023-08-21T07:27:31;20.50;99.90
25092;DHT22;13082;52.374;4.946;2023-08-21T07:29:56;20.70;99.90
25092;DHT22;13082;52.374;4.946;2023-08-21T07:32:22;20.80;99.90
25092;DHT22;13082;52.374;4.946;2023-08-21T07:34:52;20.80;99.90
25092;DHT22;13082;52.374;4.946;2023-08-21T07:37:18;20.90;99.90
25092;DHT22;13082;52.374;4.946;2023-08-21T07:39:43;20.90;99.90
25092;DHT22;13082;52.374;4.946;2023-08-21T07:42:11;21.00;99.90
25092;DHT22;13082;52.374;4.946;2023-08-21T07:44:38;21.10;99.90
25092;DHT22;13082;52.374;4.946;2023-08-21T07:47:04;21.20;99.90
25092;DHT22;13082;52.374;4.946;2023-08-21T07:49:31;21.30;99.90
25092;DHT22;13082;52.374;4.946;2023-08-21T07:51:56;21.40;99.90
25092;DHT22;13082;52.374;4.946;2023-08-21T07:54:22;21.60;99.90
25092;DHT22;13082;52.374;4.946;2023-08-21T07:56:48;21.70;99.90
25092;DHT22;13082;52.374;4.946;2023-08-21T07:59:13;21.90;99.90
25092;DHT22;13082;52.374;4.946;2023-08-21T08:01:39;22.00;99.90
25092;DHT22;13082;52.374;4.946;2023-08-21T08:04:04;22.00;99.90
25092;DHT22;13082;52.374;4.946;2023-08-21T08:06:31;22.00;99.90
25092;DHT22;13082;52.374;4.946;2023-08-21T08:08:57;22.20;99.90
25092;DHT22;13082;52.374;4.946;2023-08-21T08:11:23;22.30;99.90
25092;DHT22;13082;52.374;4.946;2023-08-21T08:13:48;22.40;99.90
25092;DHT22;13082;52.374;4.946;2023-08-21T08:16:14;22.50;99.90
25092;DHT22;13082;52.374;4.946;2023-08-21T08:18:40;22.30;99.90
25092;DHT22;13082;52.374;4.946;2023-08-21T08:21:05;22.30;99.90
25092;DHT22;13082;52.374;4.946;2023-08-21T08:23:31;22.40;99.90
25092;DHT22;13082;52.374;4.946;2023-08-21T08:25:57;22.50;99.90
25092;DHT22;13082;52.374;4.946;2023-08-21T08:28:22;22.50;99.90
25092;DHT22;13082;52.374;4.946;2023-08-21T08:30:48;22.70;99.90
25092;DHT22;13082;52.374;4.946;2023-08-21T08:33:14;22.60;99.90
25092;DHT22;13082;52.374;4.946;2023-08-21T08:35:39;22.60;99.90
25092;DHT22;13082;52.374;4.946;2023-08-21T08:38:06;22.70;99.90
25092;DHT22;13082;52.374;4.946;2023-08-21T08:40:33;22.80;99.90
25092;DHT22;13082;52.374;4.946;2023-08-21T08:42:59;22.90;99.90
25092;DHT22;13082;52.374;4.946;2023-08-21T08:45:29;22.90;99.90
25092;DHT22;13082;52.374;4.946;2023-08-21T08:48:01;22.90;99.90
25092;DHT22;13082;52.374;4.946;2023-08-21T08:50:31;22.70;99.90
25092;DHT22;13082;52.374;4.946;2023-08-21T08:52:58;22.80;99.90
25092;DHT22;13082;52.374;4.946;2023-08-21T08:55:24;22.90;99.90
25092;DHT22;13082;52.374;4.946;2023-08-21T08:57:51;22.90;99.90
25092;DHT22;13082;52.374;4.946;2023-08-21T09:00:17;23.00;99.90
25092;DHT22;13082;52.374;4.946;2023-08-21T09:02:43;23.00;99.90
25092;DHT22;13082;52.374;4.946;2023-08-21T09:05:09;23.10;99.90
25092;DHT22;13082;52.374;4.946;2023-08-21T09:07:35;23.00;99.90
25092;DHT22;13082;52.374;4.946;2023-08-21T09:10:01;23.10;99.90
25092;DHT22;13082;52.374;4.946;2023-08-21T09:12:31;23.10;99.90
25092;DHT22;13082;52.374;4.946;2023-08-21T09:14:59;23.30;99.90
25092;DHT22;13082;52.374;4.946;2023-08-21T09:17:26;23.40;99.90
25092;DHT22;13082;52.374;4.946;2023-08-21T09:19:52;23.30;99.90
25092;DHT22;13082;52.374;4.946;2023-08-21T09:22:18;23.20;99.90
25092;DHT22;13082;52.374;4.946;2023-08-21T09:25:01;23.20;99.90
25092;DHT22;13082;52.374;4.946;2023-08-21T09:27:32;23.10;99.90
25092;DHT22;13082;52.374;4.946;2023-08-21T09:29:58;23.20;99.90
25092;DHT22;13082;52.374;4.946;2023-08-21T09:32:23;23.20;99.90
25092;DHT22;13082;52.374;4.946;2023-08-21T09:34:49;23.20;99.90
25092;DHT22;13082;52.374;4.946;2023-08-21T09:37:16;23.30;99.90
25092;DHT22;13082;52.374;4.946;2023-08-21T09:39:43;23.40;99.90
25092;DHT22;13082;52.374;4.946;2023-08-21T09:42:09;23.20;99.90
25092;DHT22;13082;52.374;4.946;2023-08-21T09:44:39;23.30;99.90
25092;DHT22;13082;52.374;4.946;2023-08-21T09:47:10;23.20;99.90
25092;DHT22;13082;52.374;4.946;2023-08-21T09:49:37;23.20;99.90
25092;DHT22;13082;52.374;4.946;2023-08-21T09:52:08;23.20;99.90
25092;DHT22;13082;52.374;4.946;2023-08-21T09:54:37;23.20;99.90
25092;DHT22;13082;52.374;4.946;2023-08-21T09:57:03;23.30;99.90
25092;DHT22;13082;52.374;4.946;2023-08-21T09:59:32;23.40;99.90
25092;DHT22;13082;52.374;4.946;2023-08-21T10:01:59;23.50;99.90
25092;DHT22;13082;52.374;4.946;2023-08-21T10:04:28;23.40;99.90
25092;DHT22;13082;52.374;4.946;2023-08-21T10:06:55;23.40;99.90
25092;DHT22;13082;52.374;4.946;2023-08-21T10:09:23;23.40;99.90
25092;DHT22;13082;52.374;4.946;2023-08-21T10:11:48;23.60;99.90
25092;DHT22;13082;52.374;4.946;2023-08-21T10:14:15;23.60;99.90
25092;DHT22;13082;52.374;4.946;2023-08-21T10:16:41;23.50;99.90
25092;DHT22;13082;52.374;4.946;2023-08-21T10:19:07;23.50;99.90
25092;DHT22;13082;52.374;4.946;2023-08-21T10:21:37;23.60;99.90
25092;DHT22;13082;52.374;4.946;2023-08-21T10:24:03;23.70;99.90
25092;DHT22;13082;52.374;4.946;2023-08-21T10:26:29;23.90;99.90
25092;DHT22;13082;52.374;4.946;2023-08-21T10:29:02;24.00;99.90
25092;DHT22;13082;52.374;4.946;2023-08-21T10:31:37;24.10;99.90
25092;DHT22;13082;52.374;4.946;2023-08-21T10:34:13;24.20;99.90
25092;DHT22;13082;52.374;4.946;2023-08-21T10:37:02;24.20;99.90
25092;DHT22;13082;52.374;4.946;2023-08-21T10:39:27;24.30;99.90
25092;DHT22;13082;52.374;4.946;2023-08-21T10:42:10;24.40;99.90
25092;DHT22;13082;52.374;4.946;2023-08-21T10:49:48;24.70;99.90
25092;DHT22;13082;52.374;4.946;2023-08-21T10:52:14;24.80;99.90
25092;DHT22;13082;52.374;4.946;2023-08-21T10:54:50;24.80;99.90
25092;DHT22;13082;52.374;4.946;2023-08-21T10:57:16;24.80;99.90
25092;DHT22;13082;52.374;4.946;2023-08-21T11:02:26;24.60;99.90
25092;DHT22;13082;52.374;4.946;2023-08-21T11:04:52;24.50;99.90
25092;DHT22;13082;52.374;4.946;2023-08-21T11:07:18;24.40;99.90
25092;DHT22;13082;52.374;4.946;2023-08-21T11:09:44;24.40;99.90
25092;DHT22;13082;52.374;4.946;2023-08-21T11:12:16;24.40;99.90
25092;DHT22;13082;52.374;4.946;2023-08-21T11:14:42;24.40;99.90
25092;DHT22;13082;52.374;4.946;2023-08-21T11:17:09;24.60;99.90
25092;DHT22;13082;52.374;4.946;2023-08-21T11:19:36;24.80;99.90
25092;DHT22;13082;52.374;4.946;2023-08-21T11:22:02;24.80;99.90
25092;DHT22;13082;52.374;4.946;2023-08-21T11:27:04;25.00;99.90
25092;DHT22;13082;52.374;4.946;2023-08-21T11:29:47;25.20;99.90
25092;DHT22;13082;52.374;4.946;2023-08-21T11:32:15;25.20;99.90
25092;DHT22;13082;52.374;4.946;2023-08-21T11:34:43;25.30;99.90
25092;DHT22;13082;52.374;4.946;2023-08-21T11:37:12;25.30;99.90
25092;DHT22;13082;52.374;4.946;2023-08-21T11:42:11;25.50;99.90
25092;DHT22;13082;52.374;4.946;2023-08-21T11:45:04;25.70;99.90
25092;DHT22;13082;52.374;4.946;2023-08-21T11:47:35;25.80;99.90
25092;DHT22;13082;52.374;4.946;2023-08-21T11:50:06;25.80;99.90
25092;DHT22;13082;52.374;4.946;2023-08-21T11:52:33;25.90;99.90
25092;DHT22;13082;52.374;4.946;2023-08-21T11:55:00;25.90;99.90
25092;DHT22;13082;52.374;4.946;2023-08-21T11:57:26;25.80;99.90
25092;DHT22;13082;52.374;4.946;2023-08-21T11:59:54;25.70;99.90
25092;DHT22;13082;52.374;4.946;2023-08-21T12:02:27;25.70;99.90
25092;DHT22;13082;52.374;4.946;2023-08-21T12:07:19;25.70;99.90
25092;DHT22;13082;52.374;4.946;2023-08-21T12:09:48;25.70;99.90
25092;DHT22;13082;52.374;4.946;2023-08-21T12:12:17;25.70;99.90
25092;DHT22;13082;52.374;4.946;2023-08-21T12:14:42;25.70;99.90
25092;DHT22;13082;52.374;4.946;2023-08-21T12:17:08;25.80;99.90
25092;DHT22;13082;52.374;4.946;2023-08-21T12:19:34;25.90;99.90
25092;DHT22;13082;52.374;4.946;2023-08-21T12:21:59;26.00;99.90
25092;DHT22;13082;52.374;4.946;2023-08-21T12:24:25;26.10;99.90
25092;DHT22;13082;52.374;4.946;2023-08-21T12:26:51;26.00;99.90
25092;DHT22;13082;52.374;4.946;2023-08-21T12:29:16;25.90;99.90
25092;DHT22;13082;52.374;4.946;2023-08-21T12:31:42;25.70;99.90
25092;DHT22;13082;52.374;4.946;2023-08-21T12:34:08;25.70;99.90
25092;DHT22;13082;52.374;4.946;2023-08-21T12:36:35;25.70;99.90
25092;DHT22;13082;52.374;4.946;2023-08-21T12:39:03;25.70;99.90
25092;DHT22;13082;52.374;4.946;2023-08-21T12:41:29;25.60;99.90
25092;DHT22;13082;52.374;4.946;2023-08-21T12:43:54;25.60;99.90
25092;DHT22;13082;52.374;4.946;2023-08-21T12:46:20;25.60;99.90
25092;DHT22;13082;52.374;4.946;2023-08-21T12:48:46;25.60;99.90
25092;DHT22;13082;52.374;4.946;2023-08-21T12:51:11;25.80;99.90
25092;DHT22;13082;52.374;4.946;2023-08-21T12:53:37;25.80;99.90
25092;DHT22;13082;52.374;4.946;2023-08-21T12:56:04;25.70;99.90
25092;DHT22;13082;52.374;4.946;2023-08-21T12:58:29;25.70;99.90
25092;DHT22;13082;52.374;4.946;2023-08-21T13:00:55;25.60;99.90
25092;DHT22;13082;52.374;4.946;2023-08-21T13:03:21;25.80;99.90
25092;DHT22;13082;52.374;4.946;2023-08-21T13:05:47;25.80;99.90
25092;DHT22;13082;52.374;4.946;2023-08-21T13:08:12;25.80;99.90
25092;DHT22;13082;52.374;4.946;2023-08-21T13:10:39;25.70;99.90
25092;DHT22;13082;52.374;4.946;2023-08-21T13:13:05;25.80;99.90
25092;DHT22;13082;52.374;4.946;2023-08-21T13:15:30;26.00;99.90
25092;DHT22;13082;52.374;4.946;2023-08-21T13:17:57;26.00;99.90
25092;DHT22;13082;52.374;4.946;2023-08-21T13:20:23;25.80;99.90
25092;DHT22;13082;52.374;4.946;2023-08-21T13:22:52;25.80;99.90
25092;DHT22;13082;52.374;4.946;2023-08-21T13:25:19;25.70;99.90
25092;DHT22;13082;52.374;4.946;2023-08-21T13:27:45;25.70;99.90
25092;DHT22;13082;52.374;4.946;2023-08-21T13:30:12;25.70;99.90
25092;DHT22;13082;52.374;4.946;2023-08-21T13:32:38;25.90;99.90
25092;DHT22;13082;52.374;4.946;2023-08-21T13:35:04;25.90;99.90
25092;DHT22;13082;52.374;4.946;2023-08-21T13:37:32;26.00;99.90
25092;DHT22;13082;52.374;4.946;2023-08-21T13:39:58;25.90;99.90
25092;DHT22;13082;52.374;4.946;2023-08-21T13:42:25;25.60;99.90
25092;DHT22;13082;52.374;4.946;2023-08-21T13:44:53;25.70;99.90
25092;DHT22;13082;52.374;4.946;2023-08-21T13:47:19;25.70;99.90
25092;DHT22;13082;52.374;4.946;2023-08-21T13:49:44;25.80;99.90
25092;DHT22;13082;52.374;4.946;2023-08-21T13:52:10;25.80;99.90
25092;DHT22;13082;52.374;4.946;2023-08-21T13:54:35;25.70;99.90
25092;DHT22;13082;52.374;4.946;2023-08-21T13:57:01;25.80;99.90
25092;DHT22;13082;52.374;4.946;2023-08-21T13:59:27;25.80;99.90
25092;DHT22;13082;52.374;4.946;2023-08-21T14:01:52;25.70;99.90
25092;DHT22;13082;52.374;4.946;2023-08-21T14:04:18;25.80;99.90
25092;DHT22;13082;52.374;4.946;2023-08-21T14:06:43;25.90;99.90
25092;DHT22;13082;52.374;4.946;2023-08-21T14:09:09;25.80;99.90
25092;DHT22;13082;52.374;4.946;2023-08-21T14:11:35;25.70;99.90
25092;DHT22;13082;52.374;4.946;2023-08-21T14:14:00;25.60;99.90
25092;DHT22;13082;52.374;4.946;2023-08-21T14:16:26;25.60;99.90
25092;DHT22;13082;52.374;4.946;2023-08-21T14:18:52;25.70;99.90
25092;DHT22;13082;52.374;4.946;2023-08-21T14:21:17;25.70;99.90
25092;DHT22;13082;52.374;4.946;2023-08-21T14:23:43;25.70;99.90
25092;DHT22;13082;52.374;4.946;2023-08-21T14:26:08;25.60;99.90
25092;DHT22;13082;52.374;4.946;2023-08-21T14:28:34;25.60;99.90
25092;DHT22;13082;52.374;4.946;2023-08-21T14:30:59;25.60;99.90
25092;DHT22;13082;52.374;4.946;2023-08-21T14:33:25;25.60;99.90
25092;DHT22;13082;52.374;4.946;2023-08-21T14:35:51;25.50;99.90
25092;DHT22;13082;52.374;4.946;2023-08-21T14:38:16;25.50;99.90
25092;DHT22;13082;52.374;4.946;2023-08-21T14:40:42;25.50;99.90
25092;DHT22;13082;52.374;4.946;2023-08-21T14:43:08;25.60;99.90
25092;DHT22;13082;52.374;4.946;2023-08-21T14:45:34;25.60;99.90
25092;DHT22;13082;52.374;4.946;2023-08-21T14:47:59;25.60;99.90
25092;DHT22;13082;52.374;4.946;2023-08-21T14:50:25;25.60;99.90
25092;DHT22;13082;52.374;4.946;2023-08-21T14:52:50;25.50;99.90
25092;DHT22;13082;52.374;4.946;2023-08-21T14:55:16;25.50;99.90
25092;DHT22;13082;52.374;4.946;2023-08-21T14:57:42;25.60;99.90
25092;DHT22;13082;52.374;4.946;2023-08-21T15:00:08;25.60;99.90
25092;DHT22;13082;52.374;4.946;2023-08-21T15:02:35;25.50;99.90
25092;DHT22;13082;52.374;4.946;2023-08-21T15:05:02;25.50;99.90
25092;DHT22;13082;52.374;4.946;2023-08-21T15:07:30;25.50;99.90
25092;DHT22;13082;52.374;4.946;2023-08-21T15:09:56;25.50;99.90
25092;DHT22;13082;52.374;4.946;2023-08-21T15:12:21;25.50;99.90
25092;DHT22;13082;52.374;4.946;2023-08-21T15:14:47;25.60;99.90
25092;DHT22;13082;52.374;4.946;2023-08-21T15:17:13;25.60;99.90
25092;DHT22;13082;52.374;4.946;2023-08-21T15:19:38;25.60;99.90
25092;DHT22;13082;52.374;4.946;2023-08-21T15:22:04;25.50;99.90
25092;DHT22;13082;52.374;4.946;2023-08-21T15:24:30;25.60;99.90
25092;DHT22;13082;52.374;4.946;2023-08-21T15:26:55;25.50;99.90
25092;DHT22;13082;52.374;4.946;2023-08-21T15:29:21;25.40;99.90
25092;DHT22;13082;52.374;4.946;2023-08-21T15:31:47;25.40;99.90
25092;DHT22;13082;52.374;4.946;2023-08-21T15:34:12;25.40;99.90
25092;DHT22;13082;52.374;4.946;2023-08-21T15:36:38;25.40;99.90
25092;DHT22;13082;52.374;4.946;2023-08-21T15:39:03;25.40;99.90
25092;DHT22;13082;52.374;4.946;2023-08-21T15:41:29;25.30;99.90